TimeCST,TemperatureF,Dew PointF,Humidity,Sea Level PressureIn,VisibilityMPH,Wind Direction,Wind SpeedMPH,Gust SpeedMPH,PrecipitationIn,Events,Conditions,WindDirDegrees,DateUTC
12:54 AM,35.1,28.9,78,29.60,8.0,NW,11.5,-,N/A,,Clear,320,2013-02-18 06:54:00
1:54 AM,33.1,28.0,82,29.58,7.0,NNW,9.2,-,N/A,,Clear,330,2013-02-18 07:54:00
2:54 AM,34.0,28.9,82,29.59,7.0,NNW,6.9,-,N/A,,Clear,340,2013-02-18 08:54:00
3:54 AM,34.0,28.9,82,29.58,10.0,North,6.9,-,N/A,,Clear,350,2013-02-18 09:54:00
4:54 AM,32.0,28.9,88,29.61,10.0,NW,6.9,-,N/A,,Clear,310,2013-02-18 10:54:00
6:54 AM,34.0,28.9,82,29.63,10.0,North,11.5,-,N/A,,Clear,350,2013-02-18 12:54:00
7:54 AM,37.9,30.9,76,29.66,10.0,NNW,17.3,-,N/A,,Overcast,340,2013-02-18 13:54:00
8:49 AM,37.4,28.4,70,29.69,10.0,NNW,21.9,28.8,N/A,,Overcast,330,2013-02-18 14:49:00
8:54 AM,37.9,28.9,70,29.70,10.0,NNW,19.6,28.8,N/A,,Overcast,340,2013-02-18 14:54:00
9:54 AM,36.0,27.0,70,29.74,3.0,NNW,31.1,40.3,0.00,Snow,Light Snow,330,2013-02-18 15:54:00
9:59 AM,35.6,26.6,70,29.74,1.8,NNW,27.6,40.3,0.00,Snow,Light Snow,330,2013-02-18 15:59:00
10:29 AM,33.8,24.8,70,29.76,3.0,NNW,28.8,42.6,0.00,Snow,Light Snow,340,2013-02-18 16:29:00
10:39 AM,33.8,24.8,70,29.77,9.0,NNW,28.8,39.1,0.00,,Mostly Cloudy,330,2013-02-18 16:39:00
10:52 AM,33.8,24.8,70,29.78,9.0,NNW,29.9,36.8,0.00,,Mostly Cloudy,330,2013-02-18 16:52:00
10:54 AM,33.1,23.0,66,29.79,9.0,NNW,28.8,36.8,0.00,,Overcast,330,2013-02-18 16:54:00
11:54 AM,32.0,23.0,69,29.83,8.0,NW,24.2,32.2,N/A,,Overcast,320,2013-02-18 17:54:00
12:41 PM,30.2,17.6,60,29.84,10.0,NNW,32.2,39.1,N/A,,Scattered Clouds,330,2013-02-18 18:41:00
12:54 PM,30.9,18.0,59,29.85,10.0,NNW,27.6,36.8,N/A,,Partly Cloudy,330,2013-02-18 18:54:00
1:54 PM,32.0,16.0,52,29.86,10.0,NW,31.1,38.0,N/A,,Overcast,320,2013-02-18 19:54:00
2:54 PM,30.0,14.0,51,29.90,10.0,NW,26.5,36.8,N/A,,Overcast,320,2013-02-18 20:54:00
3:54 PM,30.9,12.9,47,29.91,10.0,NW,33.4,40.3,N/A,,Scattered Clouds,320,2013-02-18 21:54:00
4:54 PM,28.9,12.9,51,29.94,10.0,NW,27.6,38.0,N/A,,Partly Cloudy,310,2013-02-18 22:54:00
5:54 PM,26.1,12.9,58,29.97,10.0,NNW,24.2,38.0,N/A,,Scattered Clouds,330,2013-02-18 23:54:00
6:54 PM,24.1,12.9,62,30.01,10.0,NNW,17.3,33.4,N/A,,Partly Cloudy,330,2013-02-19 00:54:00
7:54 PM,21.9,12.0,66,30.02,10.0,NNW,19.6,27.6,N/A,,Clear,340,2013-02-19 01:54:00
8:54 PM,19.9,10.9,68,30.04,10.0,NNW,19.6,-,N/A,,Clear,330,2013-02-19 02:54:00
9:54 PM,21.0,12.0,68,30.05,10.0,NNW,20.7,26.5,N/A,,Clear,330,2013-02-19 03:54:00
10:21 PM,21.2,10.4,63,30.05,10.0,NW,21.9,32.2,N/A,,Mostly Cloudy,320,2013-02-19 04:21:00
10:34 PM,19.4,10.4,68,30.05,10.0,NNW,24.2,-,N/A,,Scattered Clouds,330,2013-02-19 04:34:00
10:54 PM,19.0,10.0,68,30.09,10.0,NNW,18.4,27.6,N/A,,Clear,330,2013-02-19 04:54:00
11:54 PM,16.0,7.0,68,30.11,10.0,NW,24.2,32.2,N/A,,Scattered Clouds,320,2013-02-19 05:54:00